sensor_id;sensor_type;location;lat;lon;timestamp;P1;durP1;ratioP1;P2;durP2;ratioP2
19235;SDS011;9752;54.270;12.470;2024-03-02T00:03:21;217.40;;;93.83;;
19235;SDS011;9752;54.270;12.470;2024-03-02T00:08:23;231.23;;;100.57;;
19235;SDS011;9752;54.270;12.470;2024-03-02T00:13:26;241.10;;;98.77;;
19235;SDS011;9752;54.270;12.470;2024-03-02T00:18:31;244.30;;;98.23;;
19235;SDS011;9752;54.270;12.470;2024-03-02T00:23:34;254.83;;;94.07;;
19235;SDS011;9752;54.270;12.470;2024-03-02T00:28:36;186.97;;;80.33;;
19235;SDS011;9752;54.270;12.470;2024-03-02T00:33:40;225.40;;;89.77;;
19235;SDS011;9752;54.270;12.470;2024-03-02T00:38:44;220.47;;;95.00;;
19235;SDS011;9752;54.270;12.470;2024-03-02T00:43:48;265.33;;;106.07;;
19235;SDS011;9752;54.270;12.470;2024-03-02T00:49:00;193.77;;;86.70;;
19235;SDS011;9752;54.270;12.470;2024-03-02T00:54:03;256.80;;;104.07;;
19235;SDS011;9752;54.270;12.470;2024-03-02T00:59:06;299.13;;;116.93;;
19235;SDS011;9752;54.270;12.470;2024-03-02T01:04:10;271.50;;;110.47;;
19235;SDS011;9752;54.270;12.470;2024-03-02T01:09:12;225.00;;;96.73;;
19235;SDS011;9752;54.270;12.470;2024-03-02T01:14:13;175.30;;;85.33;;
19235;SDS011;9752;54.270;12.470;2024-03-02T01:19:17;233.83;;;96.97;;
19235;SDS011;9752;54.270;12.470;2024-03-02T01:24:18;191.03;;;87.03;;
19235;SDS011;9752;54.270;12.470;2024-03-02T01:29:20;189.53;;;86.83;;
19235;SDS011;9752;54.270;12.470;2024-03-02T01:34:23;375.33;;;130.50;;
19235;SDS011;9752;54.270;12.470;2024-03-02T01:39:25;290.73;;;112.90;;
19235;SDS011;9752;54.270;12.470;2024-03-02T01:44:27;268.20;;;107.67;;
19235;SDS011;9752;54.270;12.470;2024-03-02T01:49:30;237.20;;;99.27;;
19235;SDS011;9752;54.270;12.470;2024-03-02T01:54:32;331.30;;;128.37;;
19235;SDS011;9752;54.270;12.470;2024-03-02T01:59:34;246.83;;;105.90;;
19235;SDS011;9752;54.270;12.470;2024-03-02T02:04:37;242.07;;;102.90;;
19235;SDS011;9752;54.270;12.470;2024-03-02T02:09:39;222.07;;;100.23;;
19235;SDS011;9752;54.270;12.470;2024-03-02T02:14:46;241.97;;;103.07;;
19235;SDS011;9752;54.270;12.470;2024-03-02T02:19:50;245.80;;;103.17;;
19235;SDS011;9752;54.270;12.470;2024-03-02T02:24:53;284.63;;;112.43;;
19235;SDS011;9752;54.270;12.470;2024-03-02T02:29:54;183.77;;;86.30;;
19235;SDS011;9752;54.270;12.470;2024-03-02T02:34:56;246.67;;;106.03;;
19235;SDS011;9752;54.270;12.470;2024-03-02T02:39:59;247.57;;;103.00;;
19235;SDS011;9752;54.270;12.470;2024-03-02T02:45:01;226.10;;;97.93;;
19235;SDS011;9752;54.270;12.470;2024-03-02T02:50:04;326.90;;;128.23;;
19235;SDS011;9752;54.270;12.470;2024-03-02T02:55:10;235.37;;;99.27;;
19235;SDS011;9752;54.270;12.470;2024-03-02T03:00:14;258.87;;;110.87;;
19235;SDS011;9752;54.270;12.470;2024-03-02T03:05:18;281.13;;;114.23;;
19235;SDS011;9752;54.270;12.470;2024-03-02T03:10:22;196.07;;;93.03;;
19235;SDS011;9752;54.270;12.470;2024-03-02T03:15:26;300.60;;;119.50;;
19235;SDS011;9752;54.270;12.470;2024-03-02T03:20:28;354.23;;;128.87;;
19235;SDS011;9752;54.270;12.470;2024-03-02T03:25:31;199.53;;;95.10;;
19235;SDS011;9752;54.270;12.470;2024-03-02T03:30:32;255.83;;;112.60;;
19235;SDS011;9752;54.270;12.470;2024-03-02T03:35:34;183.03;;;87.60;;
19235;SDS011;9752;54.270;12.470;2024-03-02T03:40:39;198.60;;;96.43;;
19235;SDS011;9752;54.270;12.470;2024-03-02T03:45:41;266.20;;;113.13;;
19235;SDS011;9752;54.270;12.470;2024-03-02T03:50:42;188.37;;;90.63;;
19235;SDS011;9752;54.270;12.470;2024-03-02T03:55:45;288.13;;;118.93;;
19235;SDS011;9752;54.270;12.470;2024-03-02T04:00:49;299.13;;;122.03;;
19235;SDS011;9752;54.270;12.470;2024-03-02T04:05:51;212.20;;;100.67;;
19235;SDS011;9752;54.270;12.470;2024-03-02T04:10:54;220.60;;;100.17;;
19235;SDS011;9752;54.270;12.470;2024-03-02T04:15:55;178.37;;;87.23;;
19235;SDS011;9752;54.270;12.470;2024-03-02T04:20:57;382.57;;;141.37;;
19235;SDS011;9752;54.270;12.470;2024-03-02T04:26:00;364.37;;;140.47;;
19235;SDS011;9752;54.270;12.470;2024-03-02T04:31:02;227.90;;;105.43;;
19235;SDS011;9752;54.270;12.470;2024-03-02T04:36:04;295.73;;;119.60;;
19235;SDS011;9752;54.270;12.470;2024-03-02T04:41:10;275.17;;;118.37;;
19235;SDS011;9752;54.270;12.470;2024-03-02T04:46:11;182.77;;;89.93;;
19235;SDS011;9752;54.270;12.470;2024-03-02T04:51:13;235.77;;;109.33;;
19235;SDS011;9752;54.270;12.470;2024-03-02T04:56:16;235.27;;;107.07;;
19235;SDS011;9752;54.270;12.470;2024-03-02T05:01:44;297.00;;;124.83;;
19235;SDS011;9752;54.270;12.470;2024-03-02T05:06:46;246.70;;;108.20;;
19235;SDS011;9752;54.270;12.470;2024-03-02T05:11:53;217.73;;;108.57;;
19235;SDS011;9752;54.270;12.470;2024-03-02T05:17:16;198.43;;;95.73;;
19235;SDS011;9752;54.270;12.470;2024-03-02T05:22:17;395.13;;;144.97;;
19235;SDS011;9752;54.270;12.470;2024-03-02T05:27:20;396.90;;;146.17;;
19235;SDS011;9752;54.270;12.470;2024-03-02T05:32:22;304.53;;;126.37;;
19235;SDS011;9752;54.270;12.470;2024-03-02T05:37:24;355.37;;;137.07;;
19235;SDS011;9752;54.270;12.470;2024-03-02T05:42:27;300.70;;;124.60;;
19235;SDS011;9752;54.270;12.470;2024-03-02T05:47:28;191.67;;;93.83;;
19235;SDS011;9752;54.270;12.470;2024-03-02T05:52:30;178.40;;;93.90;;
19235;SDS011;9752;54.270;12.470;2024-03-02T05:57:33;172.10;;;91.10;;
19235;SDS011;9752;54.270;12.470;2024-03-02T06:02:47;335.00;;;129.73;;
19235;SDS011;9752;54.270;12.470;2024-03-02T06:07:49;307.03;;;125.50;;
19235;SDS011;9752;54.270;12.470;2024-03-02T06:12:52;302.93;;;120.73;;
19235;SDS011;9752;54.270;12.470;2024-03-02T06:17:53;186.20;;;92.70;;
19235;SDS011;9752;54.270;12.470;2024-03-02T06:22:55;181.57;;;90.17;;
19235;SDS011;9752;54.270;12.470;2024-03-02T06:27:58;432.23;;;158.83;;
19235;SDS011;9752;54.270;12.470;2024-03-02T06:33:00;240.77;;;109.67;;
19235;SDS011;9752;54.270;12.470;2024-03-02T06:38:01;364.83;;;146.63;;
19235;SDS011;9752;54.270;12.470;2024-03-02T06:43:05;308.57;;;122.00;;
19235;SDS011;9752;54.270;12.470;2024-03-02T06:48:06;223.63;;;108.20;;
19235;SDS011;9752;54.270;12.470;2024-03-02T06:53:08;262.10;;;117.63;;
19235;SDS011;9752;54.270;12.470;2024-03-02T06:58:11;204.00;;;98.33;;
19235;SDS011;9752;54.270;12.470;2024-03-02T07:03:13;544.03;;;188.37;;
19235;SDS011;9752;54.270;12.470;2024-03-02T07:08:15;254.37;;;111.53;;
19235;SDS011;9752;54.270;12.470;2024-03-02T07:13:18;182.97;;;94.17;;
19235;SDS011;9752;54.270;12.470;2024-03-02T07:18:20;249.90;;;114.40;;
19235;SDS011;9752;54.270;12.470;2024-03-02T07:23:22;274.70;;;121.57;;
19235;SDS011;9752;54.270;12.470;2024-03-02T07:28:28;473.93;;;169.53;;
19235;SDS011;9752;54.270;12.470;2024-03-02T07:33:30;313.17;;;130.97;;
19235;SDS011;9752;54.270;12.470;2024-03-02T07:38:32;284.97;;;122.60;;
19235;SDS011;9752;54.270;12.470;2024-03-02T07:43:36;201.57;;;97.77;;
19235;SDS011;9752;54.270;12.470;2024-03-02T07:48:38;458.70;;;167.93;;
19235;SDS011;9752;54.270;12.470;2024-03-02T07:53:40;312.43;;;121.47;;
19235;SDS011;9752;54.270;12.470;2024-03-02T07:58:43;471.93;;;164.50;;
19235;SDS011;9752;54.270;12.470;2024-03-02T08:03:46;333.27;;;131.17;;
19235;SDS011;9752;54.270;12.470;2024-03-02T08:08:50;326.57;;;127.30;;
19235;SDS011;9752;54.270;12.470;2024-03-02T08:13:53;379.83;;;141.80;;
19235;SDS011;9752;54.270;12.470;2024-03-02T08:18:55;220.30;;;108.17;;
19235;SDS011;9752;54.270;12.470;2024-03-02T08:23:58;150.50;;;82.77;;
19235;SDS011;9752;54.270;12.470;2024-03-02T08:29:01;235.70;;;108.10;;
19235;SDS011;9752;54.270;12.470;2024-03-02T08:34:03;349.83;;;134.10;;
19235;SDS011;9752;54.270;12.470;2024-03-02T08:39:05;291.63;;;123.70;;
19235;SDS011;9752;54.270;12.470;2024-03-02T08:44:16;345.10;;;135.67;;
19235;SDS011;9752;54.270;12.470;2024-03-02T08:49:18;285.33;;;122.10;;
19235;SDS011;9752;54.270;12.470;2024-03-02T08:54:20;197.83;;;100.27;;
19235;SDS011;9752;54.270;12.470;2024-03-02T08:59:23;144.40;;;80.70;;
19235;SDS011;9752;54.270;12.470;2024-03-02T09:04:28;167.50;;;89.23;;
19235;SDS011;9752;54.270;12.470;2024-03-02T09:09:30;262.17;;;120.53;;
19235;SDS011;9752;54.270;12.470;2024-03-02T09:14:34;150.57;;;84.47;;
19235;SDS011;9752;54.270;12.470;2024-03-02T09:19:36;162.60;;;88.63;;
19235;SDS011;9752;54.270;12.470;2024-03-02T09:24:38;163.97;;;91.70;;
19235;SDS011;9752;54.270;12.470;2024-03-02T09:29:41;145.23;;;81.57;;
19235;SDS011;9752;54.270;12.470;2024-03-02T09:34:43;158.40;;;84.13;;
19235;SDS011;9752;54.270;12.470;2024-03-02T09:39:45;250.63;;;123.53;;
19235;SDS011;9752;54.270;12.470;2024-03-02T09:44:48;233.80;;;112.73;;
19235;SDS011;9752;54.270;12.470;2024-03-02T09:49:49;124.23;;;75.40;;
19235;SDS011;9752;54.270;12.470;2024-03-02T09:54:51;137.03;;;78.50;;
19235;SDS011;9752;54.270;12.470;2024-03-02T09:59:54;125.63;;;78.60;;
19235;SDS011;9752;54.270;12.470;2024-03-02T10:04:56;130.67;;;78.70;;
19235;SDS011;9752;54.270;12.470;2024-03-02T10:09:57;228.13;;;111.43;;
19235;SDS011;9752;54.270;12.470;2024-03-02T10:15:04;176.57;;;95.73;;
19235;SDS011;9752;54.270;12.470;2024-03-02T10:20:21;128.40;;;78.40;;
19235;SDS011;9752;54.270;12.470;2024-03-02T10:25:30;190.37;;;101.37;;
19235;SDS011;9752;54.270;12.470;2024-03-02T10:30:34;230.57;;;112.50;;
19235;SDS011;9752;54.270;12.470;2024-03-02T10:35:36;173.53;;;94.57;;
19235;SDS011;9752;54.270;12.470;2024-03-02T10:40:40;132.57;;;80.63;;
19235;SDS011;9752;54.270;12.470;2024-03-02T10:45:44;138.47;;;81.30;;
19235;SDS011;9752;54.270;12.470;2024-03-02T10:50:49;216.40;;;104.47;;
19235;SDS011;9752;54.270;12.470;2024-03-02T10:55:51;150.50;;;85.23;;
19235;SDS011;9752;54.270;12.470;2024-03-02T11:01:02;198.27;;;99.67;;
19235;SDS011;9752;54.270;12.470;2024-03-02T11:06:05;155.43;;;87.13;;
19235;SDS011;9752;54.270;12.470;2024-03-02T11:11:12;225.87;;;106.60;;
19235;SDS011;9752;54.270;12.470;2024-03-02T11:16:22;146.37;;;81.87;;
19235;SDS011;9752;54.270;12.470;2024-03-02T11:21:35;135.63;;;78.83;;
19235;SDS011;9752;54.270;12.470;2024-03-02T11:26:38;146.50;;;85.30;;
19235;SDS011;9752;54.270;12.470;2024-03-02T11:37:14;140.60;;;81.17;;
19235;SDS011;9752;54.270;12.470;2024-03-02T11:42:17;141.27;;;84.37;;
19235;SDS011;9752;54.270;12.470;2024-03-02T11:47:20;142.07;;;80.67;;
19235;SDS011;9752;54.270;12.470;2024-03-02T11:52:22;165.73;;;91.87;;
19235;SDS011;9752;54.270;12.470;2024-03-02T11:57:25;178.70;;;101.77;;
19235;SDS011;9752;54.270;12.470;2024-03-02T12:02:33;192.13;;;97.03;;
19235;SDS011;9752;54.270;12.470;2024-03-02T12:07:35;139.87;;;80.33;;
19235;SDS011;9752;54.270;12.470;2024-03-02T12:12:37;115.70;;;71.33;;
19235;SDS011;9752;54.270;12.470;2024-03-02T12:17:40;131.43;;;73.90;;
19235;SDS011;9752;54.270;12.470;2024-03-02T12:22:42;122.87;;;70.87;;
19235;SDS011;9752;54.270;12.470;2024-03-02T12:27:46;127.13;;;70.30;;
19235;SDS011;9752;54.270;12.470;2024-03-02T12:32:50;106.00;;;65.20;;
19235;SDS011;9752;54.270;12.470;2024-03-02T12:37:53;114.73;;;69.63;;
19235;SDS011;9752;54.270;12.470;2024-03-02T12:42:55;108.00;;;65.27;;
19235;SDS011;9752;54.270;12.470;2024-03-02T12:47:59;116.50;;;68.73;;
19235;SDS011;9752;54.270;12.470;2024-03-02T12:53:01;105.73;;;65.50;;
19235;SDS011;9752;54.270;12.470;2024-03-02T12:58:03;93.47;;;57.40;;
19235;SDS011;9752;54.270;12.470;2024-03-02T13:03:06;103.23;;;63.50;;
19235;SDS011;9752;54.270;12.470;2024-03-02T13:08:08;93.97;;;61.27;;
19235;SDS011;9752;54.270;12.470;2024-03-02T13:13:09;83.27;;;54.60;;
19235;SDS011;9752;54.270;12.470;2024-03-02T13:18:13;91.00;;;59.03;;
19235;SDS011;9752;54.270;12.470;2024-03-02T13:23:15;83.27;;;53.53;;
19235;SDS011;9752;54.270;12.470;2024-03-02T13:28:17;104.33;;;63.73;;
19235;SDS011;9752;54.270;12.470;2024-03-02T13:33:20;99.10;;;62.37;;
19235;SDS011;9752;54.270;12.470;2024-03-02T13:38:22;79.30;;;51.70;;
19235;SDS011;9752;54.270;12.470;2024-03-02T13:43:24;101.20;;;61.43;;
19235;SDS011;9752;54.270;12.470;2024-03-02T13:48:28;82.90;;;52.87;;
19235;SDS011;9752;54.270;12.470;2024-03-02T13:53:30;82.80;;;52.73;;
19235;SDS011;9752;54.270;12.470;2024-03-02T13:58:32;78.03;;;49.93;;
19235;SDS011;9752;54.270;12.470;2024-03-02T14:03:35;82.07;;;52.03;;
19235;SDS011;9752;54.270;12.470;2024-03-02T14:08:37;76.93;;;48.27;;
19235;SDS011;9752;54.270;12.470;2024-03-02T14:13:38;82.73;;;53.30;;
19235;SDS011;9752;54.270;12.470;2024-03-02T14:18:42;72.73;;;46.80;;
19235;SDS011;9752;54.270;12.470;2024-03-02T14:23:43;76.57;;;48.93;;
19235;SDS011;9752;54.270;12.470;2024-03-02T14:28:45;69.83;;;45.17;;
19235;SDS011;9752;54.270;12.470;2024-03-02T14:33:48;78.20;;;49.77;;
19235;SDS011;9752;54.270;12.470;2024-03-02T14:38:49;75.60;;;47.23;;
19235;SDS011;9752;54.270;12.470;2024-03-02T14:43:51;71.00;;;45.47;;
19235;SDS011;9752;54.270;12.470;2024-03-02T14:48:54;69.67;;;44.30;;
19235;SDS011;9752;54.270;12.470;2024-03-02T14:53:56;65.30;;;43.77;;
19235;SDS011;9752;54.270;12.470;2024-03-02T14:58:58;78.73;;;47.57;;
19235;SDS011;9752;54.270;12.470;2024-03-02T15:04:01;74.10;;;47.50;;
19235;SDS011;9752;54.270;12.470;2024-03-02T15:09:02;69.67;;;46.73;;
19235;SDS011;9752;54.270;12.470;2024-03-02T15:14:04;77.80;;;47.80;;
19235;SDS011;9752;54.270;12.470;2024-03-02T15:19:08;80.80;;;48.37;;
19235;SDS011;9752;54.270;12.470;2024-03-02T15:24:10;76.70;;;50.50;;
19235;SDS011;9752;54.270;12.470;2024-03-02T15:29:11;83.57;;;52.07;;
19235;SDS011;9752;54.270;12.470;2024-03-02T15:34:14;82.30;;;52.87;;
19235;SDS011;9752;54.270;12.470;2024-03-02T15:39:16;74.40;;;45.23;;
19235;SDS011;9752;54.270;12.470;2024-03-02T15:44:18;87.13;;;54.50;;
19235;SDS011;9752;54.270;12.470;2024-03-02T15:49:21;83.17;;;50.97;;
19235;SDS011;9752;54.270;12.470;2024-03-02T15:54:23;92.53;;;52.10;;
19235;SDS011;9752;54.270;12.470;2024-03-02T15:59:24;104.40;;;62.97;;
19235;SDS011;9752;54.270;12.470;2024-03-02T16:04:27;115.70;;;65.53;;
19235;SDS011;9752;54.270;12.470;2024-03-02T16:09:29;97.50;;;58.87;;
19235;SDS011;9752;54.270;12.470;2024-03-02T16:14:30;115.90;;;64.63;;
19235;SDS011;9752;54.270;12.470;2024-03-02T16:19:34;112.17;;;65.07;;
19235;SDS011;9752;54.270;12.470;2024-03-02T16:24:39;107.27;;;59.03;;
19235;SDS011;9752;54.270;12.470;2024-03-02T16:29:40;104.57;;;59.13;;
19235;SDS011;9752;54.270;12.470;2024-03-02T16:34:43;97.93;;;56.70;;
19235;SDS011;9752;54.270;12.470;2024-03-02T16:39:45;124.37;;;66.57;;
19235;SDS011;9752;54.270;12.470;2024-03-02T16:44:48;108.40;;;61.80;;
19235;SDS011;9752;54.270;12.470;2024-03-02T16:49:55;105.17;;;63.27;;
19235;SDS011;9752;54.270;12.470;2024-03-02T16:54:57;108.77;;;65.40;;
19235;SDS011;9752;54.270;12.470;2024-03-02T16:59:59;121.33;;;68.30;;
19235;SDS011;9752;54.270;12.470;2024-03-02T17:05:02;107.87;;;60.40;;
19235;SDS011;9752;54.270;12.470;2024-03-02T17:10:05;123.07;;;68.13;;
19235;SDS011;9752;54.270;12.470;2024-03-02T17:15:07;100.50;;;57.23;;
19235;SDS011;9752;54.270;12.470;2024-03-02T17:20:11;102.73;;;62.70;;
19235;SDS011;9752;54.270;12.470;2024-03-02T17:25:15;129.90;;;67.20;;
19235;SDS011;9752;54.270;12.470;2024-03-02T17:30:16;115.80;;;62.60;;
19235;SDS011;9752;54.270;12.470;2024-03-02T17:35:21;108.10;;;62.20;;
19235;SDS011;9752;54.270;12.470;2024-03-02T17:40:24;122.20;;;64.00;;
19235;SDS011;9752;54.270;12.470;2024-03-02T17:45:25;105.50;;;59.57;;
19235;SDS011;9752;54.270;12.470;2024-03-02T17:50:29;112.17;;;60.07;;
19235;SDS011;9752;54.270;12.470;2024-03-02T17:55:31;93.33;;;51.93;;
19235;SDS011;9752;54.270;12.470;2024-03-02T18:00:32;89.37;;;50.93;;
19235;SDS011;9752;54.270;12.470;2024-03-02T18:05:35;123.13;;;63.23;;
19235;SDS011;9752;54.270;12.470;2024-03-02T18:10:37;93.30;;;52.87;;
19235;SDS011;9752;54.270;12.470;2024-03-02T18:15:39;112.40;;;60.63;;
19235;SDS011;9752;54.270;12.470;2024-03-02T18:20:42;120.40;;;62.10;;
19235;SDS011;9752;54.270;12.470;2024-03-02T18:25:45;116.60;;;62.17;;
19235;SDS011;9752;54.270;12.470;2024-03-02T18:30:47;122.67;;;63.10;;
19235;SDS011;9752;54.270;12.470;2024-03-02T18:35:50;124.43;;;58.07;;
19235;SDS011;9752;54.270;12.470;2024-03-02T18:40:52;147.17;;;68.03;;
19235;SDS011;9752;54.270;12.470;2024-03-02T18:45:53;141.13;;;67.07;;
19235;SDS011;9752;54.270;12.470;2024-03-02T18:50:57;126.40;;;64.53;;
19235;SDS011;9752;54.270;12.470;2024-03-02T18:55:58;146.53;;;71.73;;
19235;SDS011;9752;54.270;12.470;2024-03-02T19:01:00;144.07;;;66.90;;
19235;SDS011;9752;54.270;12.470;2024-03-02T19:06:03;118.70;;;64.90;;
19235;SDS011;9752;54.270;12.470;2024-03-02T19:11:11;128.40;;;65.57;;
19235;SDS011;9752;54.270;12.470;2024-03-02T19:16:14;140.50;;;64.57;;
19235;SDS011;9752;54.270;12.470;2024-03-02T19:21:18;122.30;;;63.63;;
19235;SDS011;9752;54.270;12.470;2024-03-02T19:26:19;111.73;;;57.30;;
19235;SDS011;9752;54.270;12.470;2024-03-02T19:31:21;145.37;;;65.97;;
19235;SDS011;9752;54.270;12.470;2024-03-02T19:36:24;158.13;;;71.27;;
19235;SDS011;9752;54.270;12.470;2024-03-02T19:41:26;170.33;;;76.93;;
19235;SDS011;9752;54.270;12.470;2024-03-02T19:46:28;173.77;;;80.00;;
19235;SDS011;9752;54.270;12.470;2024-03-02T19:51:30;162.00;;;82.73;;
19235;SDS011;9752;54.270;12.470;2024-03-02T19:56:32;197.83;;;81.47;;
19235;SDS011;9752;54.270;12.470;2024-03-02T20:01:35;175.93;;;81.13;;
19235;SDS011;9752;54.270;12.470;2024-03-02T20:06:38;175.93;;;87.20;;
19235;SDS011;9752;54.270;12.470;2024-03-02T20:11:39;171.30;;;83.90;;
19235;SDS011;9752;54.270;12.470;2024-03-02T20:16:42;184.80;;;91.70;;
19235;SDS011;9752;54.270;12.470;2024-03-02T20:21:46;234.33;;;99.80;;
19235;SDS011;9752;54.270;12.470;2024-03-02T20:26:47;238.10;;;109.93;;
19235;SDS011;9752;54.270;12.470;2024-03-02T20:31:49;240.83;;;106.87;;
19235;SDS011;9752;54.270;12.470;2024-03-02T20:36:52;225.40;;;106.53;;
19235;SDS011;9752;54.270;12.470;2024-03-02T20:41:54;212.93;;;95.03;;
19235;SDS011;9752;54.270;12.470;2024-03-02T20:46:55;216.80;;;95.57;;
19235;SDS011;9752;54.270;12.470;2024-03-02T20:51:58;207.30;;;97.07;;
19235;SDS011;9752;54.270;12.470;2024-03-02T20:57:00;194.37;;;90.80;;
19235;SDS011;9752;54.270;12.470;2024-03-02T21:02:05;182.90;;;86.23;;
19235;SDS011;9752;54.270;12.470;2024-03-02T21:07:09;208.27;;;91.83;;
19235;SDS011;9752;54.270;12.470;2024-03-02T21:12:10;182.17;;;89.97;;
19235;SDS011;9752;54.270;12.470;2024-03-02T21:17:12;154.67;;;86.70;;
19235;SDS011;9752;54.270;12.470;2024-03-02T21:22:15;238.73;;;124.10;;
19235;SDS011;9752;54.270;12.470;2024-03-02T21:27:17;207.20;;;118.77;;
19235;SDS011;9752;54.270;12.470;2024-03-02T21:32:19;243.87;;;120.23;;
19235;SDS011;9752;54.270;12.470;2024-03-02T21:37:21;210.63;;;102.27;;
19235;SDS011;9752;54.270;12.470;2024-03-02T21:42:23;155.77;;;82.60;;
19235;SDS011;9752;54.270;12.470;2024-03-02T21:47:25;181.03;;;90.30;;
19235;SDS011;9752;54.270;12.470;2024-03-02T21:52:28;189.63;;;94.13;;
19235;SDS011;9752;54.270;12.470;2024-03-02T21:57:29;240.50;;;105.13;;
19235;SDS011;9752;54.270;12.470;2024-03-02T22:02:31;165.63;;;88.10;;
19235;SDS011;9752;54.270;12.470;2024-03-02T22:07:34;252.63;;;115.10;;
19235;SDS011;9752;54.270;12.470;2024-03-02T22:12:36;232.43;;;126.50;;
19235;SDS011;9752;54.270;12.470;2024-03-02T22:17:38;211.13;;;120.20;;
19235;SDS011;9752;54.270;12.470;2024-03-02T22:22:41;269.97;;;137.03;;
19235;SDS011;9752;54.270;12.470;2024-03-02T22:27:42;269.53;;;124.07;;
19235;SDS011;9752;54.270;12.470;2024-03-02T22:32:44;213.57;;;104.67;;
19235;SDS011;9752;54.270;12.470;2024-03-02T22:37:47;199.70;;;100.83;;
19235;SDS011;9752;54.270;12.470;2024-03-02T22:42:49;233.37;;;110.53;;
19235;SDS011;9752;54.270;12.470;2024-03-02T22:47:50;238.03;;;107.07;;
19235;SDS011;9752;54.270;12.470;2024-03-02T22:52:56;212.33;;;99.23;;
19235;SDS011;9752;54.270;12.470;2024-03-02T22:57:58;251.37;;;107.47;;
19235;SDS011;9752;54.270;12.470;2024-03-02T23:03:00;231.43;;;101.93;;
19235;SDS011;9752;54.270;12.470;2024-03-02T23:08:04;220.10;;;98.90;;
19235;SDS011;9752;54.270;12.470;2024-03-02T23:13:07;238.27;;;103.83;;
19235;SDS011;9752;54.270;12.470;2024-03-02T23:18:08;279.40;;;112.67;;
19235;SDS011;9752;54.270;12.470;2024-03-02T23:23:11;341.23;;;132.10;;
19235;SDS011;9752;54.270;12.470;2024-03-02T23:28:13;244.23;;;108.67;;
19235;SDS011;9752;54.270;12.470;2024-03-02T23:33:15;268.47;;;115.07;;
19235;SDS011;9752;54.270;12.470;2024-03-02T23:38:18;270.23;;;114.63;;
19235;SDS011;9752;54.270;12.470;2024-03-02T23:43:19;320.87;;;120.03;;
19235;SDS011;9752;54.270;12.470;2024-03-02T23:48:21;347.63;;;136.27;;
19235;SDS011;9752;54.270;12.470;2024-03-02T23:53:24;203.43;;;92.50;;
19235;SDS011;9752;54.270;12.470;2024-03-02T23:58:26;296.10;;;124.53;;
